createdAt,value
2018-09-05T00:01:13.548Z,13.32
2018-09-05T00:03:45.169Z,13.08
2018-09-05T00:06:13.636Z,14.40
2018-09-05T00:08:42.056Z,14.33
2018-09-05T00:11:10.477Z,13.55
2018-09-05T00:13:38.904Z,17.37
2018-09-05T00:16:07.378Z,16.15
2018-09-05T00:18:35.760Z,14.33
2018-09-05T00:21:04.203Z,15.10
2018-09-05T00:23:32.825Z,14.23
2018-09-05T00:26:01.237Z,15.45
2018-09-05T00:28:29.657Z,14.63
2018-09-05T00:30:58.057Z,15.43
2018-09-05T00:33:26.473Z,16.02
2018-09-05T00:35:54.954Z,19.95
2018-09-05T00:38:24.414Z,20.60
2018-09-05T00:40:52.891Z,21.68
2018-09-05T00:43:21.321Z,22.45
2018-09-05T00:45:49.721Z,21.42
2018-09-05T00:48:18.146Z,18.80
2018-09-05T00:50:46.723Z,16.02
2018-09-05T00:53:15.207Z,16.77
2018-09-05T00:55:43.624Z,15.75
2018-09-05T00:58:12.022Z,15.78
2018-09-05T01:00:40.414Z,15.80
2018-09-05T01:03:08.937Z,18.17
2018-09-05T01:05:37.351Z,16.80
2018-09-05T01:08:06.263Z,17.67
2018-09-05T01:10:34.633Z,16.57
2018-09-05T01:13:03.050Z,17.98
2018-09-05T01:15:31.549Z,17.15
2018-09-05T01:17:59.965Z,17.12
2018-09-05T01:20:28.354Z,17.42
2018-09-05T01:22:56.757Z,16.95
2018-09-05T01:25:26.134Z,16.87
2018-09-05T01:27:55.054Z,15.75
2018-09-05T01:30:27.295Z,15.90
2018-09-05T01:32:56.452Z,14.87
2018-09-05T01:35:25.574Z,15.60
2018-09-05T01:37:54.541Z,16.62
2018-09-05T01:40:23.491Z,15.53
2018-09-05T01:42:51.875Z,16.37
2018-09-05T01:45:20.273Z,17.57
2018-09-05T01:47:48.647Z,16.55
2018-09-05T01:50:17.084Z,16.62
2018-09-05T01:52:45.429Z,16.82
2018-09-05T01:55:13.858Z,17.15
2018-09-05T01:57:42.210Z,16.57
2018-09-05T02:00:14.878Z,15.93
2018-09-05T02:02:43.342Z,15.80
2018-09-05T02:05:11.860Z,16.55
2018-09-05T02:07:40.321Z,15.32
2018-09-05T02:10:08.727Z,16.48
2018-09-05T02:12:37.285Z,16.50
2018-09-05T02:15:05.729Z,15.60
2018-09-05T02:17:34.155Z,15.83
2018-09-05T02:20:02.602Z,15.93
2018-09-05T02:22:31.133Z,15.32
2018-09-05T02:24:59.530Z,15.75
2018-09-05T02:27:27.922Z,17.73
2018-09-05T02:29:56.339Z,18.82
2018-09-05T02:32:24.821Z,17.70
2018-09-05T02:34:53.418Z,17.42
2018-09-05T02:37:21.853Z,19.10
2018-09-05T02:39:50.270Z,20.10
2018-09-05T02:42:18.811Z,18.50
2018-09-05T02:44:47.227Z,18.73
2018-09-05T02:47:16.298Z,18.65
2018-09-05T02:49:44.771Z,17.77
2018-09-05T02:52:13.222Z,18.10
2018-09-05T02:55:20.055Z,17.80
2018-09-05T02:57:48.441Z,18.00
2018-09-05T03:00:16.884Z,17.70
2018-09-05T03:02:45.276Z,17.07
2018-09-05T03:05:13.803Z,17.62
2018-09-05T03:07:42.284Z,17.50
2018-09-05T03:10:10.716Z,17.45
2018-09-05T03:12:39.144Z,17.12
2018-09-05T03:15:07.597Z,17.70
2018-09-05T03:17:36.248Z,16.67
2018-09-05T03:20:05.030Z,16.65
2018-09-05T03:22:34.143Z,16.70
2018-09-05T03:25:02.558Z,17.00
2018-09-05T03:27:30.950Z,17.87
2018-09-05T03:29:59.418Z,16.73
2018-09-05T03:32:27.867Z,17.07
2018-09-05T03:34:56.377Z,17.52
2018-09-05T03:37:24.867Z,17.43
2018-09-05T03:39:53.327Z,17.00
2018-09-05T03:42:21.775Z,18.60
2018-09-05T03:44:50.189Z,19.30
2018-09-05T03:47:18.610Z,18.07
2018-09-05T03:49:47.056Z,17.70
2018-09-05T03:52:15.562Z,19.52
2018-09-05T03:54:44.172Z,18.23
2018-09-05T03:57:12.617Z,18.62
2018-09-05T03:59:41.008Z,18.35
2018-09-05T04:02:09.420Z,19.87
2018-09-05T04:04:37.838Z,19.20
2018-09-05T04:07:06.262Z,20.40
2018-09-05T04:09:35.058Z,20.92
2018-09-05T04:12:03.519Z,18.93
2018-09-05T04:14:32.011Z,19.63
2018-09-05T04:17:00.428Z,20.23
2018-09-05T04:19:28.827Z,21.57
2018-09-05T04:21:57.309Z,20.90
2018-09-05T04:24:25.735Z,21.30
2018-09-05T04:26:54.176Z,20.77
2018-09-05T04:29:22.649Z,21.40
2018-09-05T04:31:51.101Z,21.03
2018-09-05T04:34:19.484Z,21.87
2018-09-05T04:36:48.405Z,21.77
2018-09-05T04:39:16.948Z,21.57
2018-09-05T04:41:45.543Z,21.80
2018-09-05T04:44:13.943Z,21.57
2018-09-05T04:46:42.430Z,21.12
2018-09-05T04:49:10.864Z,20.70
2018-09-05T04:51:39.316Z,21.00
2018-09-05T04:54:07.861Z,20.37
2018-09-05T04:56:36.943Z,19.47
2018-09-05T04:59:06.449Z,20.23
2018-09-05T05:01:35.879Z,20.30
2018-09-05T05:04:04.967Z,21.95
2018-09-05T05:06:33.450Z,21.37
2018-09-05T05:09:02.008Z,23.65
2018-09-05T05:11:30.401Z,22.22
2018-09-05T05:13:58.785Z,22.23
2018-09-05T05:16:27.454Z,22.87
2018-09-05T05:18:55.856Z,22.70
2018-09-05T05:21:24.333Z,22.37
2018-09-05T05:23:52.770Z,21.30
2018-09-05T05:26:21.209Z,23.18
2018-09-05T05:28:49.724Z,22.55
2018-09-05T05:31:18.195Z,22.23
2018-09-05T05:33:46.768Z,23.07
2018-09-05T05:36:15.869Z,23.17
2018-09-05T05:38:44.422Z,21.73
2018-09-05T05:41:12.886Z,20.88
2018-09-05T05:43:41.397Z,22.07
2018-09-05T05:46:10.315Z,21.77
2018-09-05T05:48:38.887Z,21.50
2018-09-05T05:51:08.362Z,22.10
2018-09-05T05:53:37.143Z,22.30
2018-09-05T05:56:06.151Z,23.87
2018-09-05T05:58:35.479Z,23.65
2018-09-05T06:01:05.799Z,24.97
2018-09-05T06:03:35.017Z,23.07
2018-09-05T06:06:03.667Z,22.67
2018-09-05T06:08:32.434Z,25.30
2018-09-05T06:11:00.915Z,26.80
2018-09-05T06:13:29.389Z,25.07
2018-09-05T06:15:57.832Z,23.85
2018-09-05T06:18:26.717Z,24.30
2018-09-05T06:20:55.439Z,23.42
2018-09-05T06:23:23.927Z,23.10
2018-09-05T06:25:52.429Z,24.23
2018-09-05T06:28:20.994Z,24.90
2018-09-05T06:30:49.506Z,25.57
2018-09-05T06:33:18.087Z,26.77
2018-09-05T06:35:46.597Z,29.72
2018-09-05T06:38:15.118Z,28.23
2018-09-05T06:40:43.583Z,29.92
2018-09-05T06:43:12.096Z,30.27
2018-09-05T06:45:40.584Z,30.32
2018-09-05T06:48:09.365Z,32.55
2018-09-05T06:50:37.932Z,32.55
2018-09-05T06:53:06.657Z,26.77
2018-09-05T06:55:35.899Z,27.00
2018-09-05T06:58:05.108Z,26.93
2018-09-05T07:00:34.037Z,25.92
2018-09-05T07:03:03.134Z,26.30
2018-09-05T07:05:31.713Z,28.57
2018-09-05T07:08:00.295Z,26.77
2018-09-05T07:10:28.966Z,26.62
2018-09-05T07:12:57.423Z,26.87
2018-09-05T07:15:25.880Z,27.20
2018-09-05T07:17:54.650Z,26.77
2018-09-05T07:20:23.326Z,31.82
2018-09-05T07:22:51.799Z,33.35
2018-09-05T07:25:20.343Z,30.80
2018-09-05T07:27:48.828Z,31.73
2018-09-05T07:30:17.919Z,34.30
2018-09-05T07:32:46.879Z,33.40
2018-09-05T07:35:15.633Z,33.42
2018-09-05T07:37:44.200Z,33.02
2018-09-05T07:41:15.943Z,32.58
2018-09-05T07:43:44.575Z,33.95
2018-09-05T07:46:12.971Z,33.28
2018-09-05T07:48:41.459Z,33.98
2018-09-05T07:51:09.992Z,34.38
2018-09-05T07:53:38.506Z,34.25
2018-09-05T07:56:08.119Z,34.85
2018-09-05T07:58:37.171Z,33.63
2018-09-05T08:01:06.500Z,33.40
2018-09-05T08:03:34.985Z,32.70
2018-09-05T08:06:03.554Z,32.53
2018-09-05T08:08:32.020Z,34.08
2018-09-05T08:11:00.524Z,34.25
2018-09-05T08:13:28.973Z,31.50
2018-09-05T08:15:57.445Z,30.48
2018-09-05T08:18:25.998Z,31.60
2018-09-05T08:20:54.553Z,30.75
2018-09-05T08:23:22.983Z,33.20
2018-09-05T08:25:51.464Z,30.77
2018-09-05T08:28:20.681Z,29.20
2018-09-05T08:30:49.511Z,28.67
2018-09-05T08:33:18.973Z,28.98
2018-09-05T08:35:48.281Z,29.45
2018-09-05T08:38:17.340Z,31.10
2018-09-05T08:40:46.517Z,29.45
2018-09-05T08:43:15.324Z,27.77
2018-09-05T08:45:44.264Z,30.68
2018-09-05T08:48:12.792Z,30.92
2018-09-05T08:50:41.860Z,31.15
2018-09-05T08:53:10.901Z,28.70
2018-09-05T08:55:39.633Z,30.05
2018-09-05T08:58:08.401Z,30.00
2018-09-05T09:00:37.247Z,28.15
2018-09-05T09:03:06.064Z,30.08
2018-09-05T09:05:34.636Z,31.12
2018-09-05T09:08:03.451Z,30.55
2018-09-05T09:10:32.340Z,31.57
2018-09-05T09:13:00.888Z,32.95
2018-09-05T09:15:29.574Z,31.42
2018-09-05T09:17:58.394Z,32.80
2018-09-05T09:20:27.133Z,33.18
2018-09-05T09:22:56.092Z,34.13
2018-09-05T09:25:25.473Z,31.68
2018-09-05T09:27:54.895Z,32.75
2018-09-05T09:30:23.787Z,31.60
2018-09-05T09:32:52.535Z,27.17
2018-09-05T09:35:21.455Z,27.45
2018-09-05T09:37:50.652Z,23.07
2018-09-05T09:40:19.423Z,22.25
2018-09-05T09:42:49.110Z,23.38
2018-09-05T09:45:19.332Z,26.80
2018-09-05T09:47:48.467Z,26.17
2018-09-05T09:50:17.786Z,25.68
2018-09-05T09:52:47.012Z,28.00
2018-09-05T09:55:15.952Z,27.75
2018-09-05T09:57:44.668Z,27.62
2018-09-05T10:00:17.885Z,29.40
2018-09-05T10:02:52.347Z,28.02
2018-09-05T10:05:26.527Z,26.82
2018-09-05T10:08:00.782Z,27.62
2018-09-05T10:10:34.579Z,28.10
2018-09-05T10:13:08.359Z,27.75
2018-09-05T10:15:42.495Z,26.02
2018-09-05T10:18:16.465Z,25.20
2018-09-05T10:20:49.065Z,23.38
2018-09-05T10:23:17.956Z,23.07
2018-09-05T10:25:46.796Z,23.67
2018-09-05T10:28:15.719Z,22.93
2018-09-05T10:30:44.481Z,21.27
2018-09-05T10:33:13.329Z,17.17
2018-09-05T10:35:42.940Z,16.80
2018-09-05T10:38:12.197Z,15.35
2018-09-05T10:40:40.939Z,15.43
2018-09-05T10:43:09.520Z,15.78
2018-09-05T10:45:38.021Z,14.47
2018-09-05T10:48:14.132Z,15.30
2018-09-05T10:50:42.713Z,16.70
2018-09-05T10:53:11.724Z,16.87
2018-09-05T10:55:40.410Z,17.45
2018-09-05T10:58:09.200Z,15.15
2018-09-05T11:00:37.814Z,15.50
2018-09-05T11:03:07.171Z,16.65
2018-09-05T11:05:36.499Z,15.40
2018-09-05T11:08:05.570Z,15.85
2018-09-05T11:10:34.440Z,16.82
2018-09-05T11:13:03.086Z,14.98
2018-09-05T11:15:32.240Z,17.80
2018-09-05T11:18:00.880Z,16.60
2018-09-05T11:20:30.209Z,13.85
2018-09-05T11:22:58.849Z,13.80
2018-09-05T11:25:27.510Z,12.40
2018-09-05T11:27:56.932Z,13.95
2018-09-05T11:30:25.849Z,13.75
2018-09-05T11:32:54.696Z,12.70
2018-09-05T11:35:24.360Z,12.98
2018-09-05T11:37:58.049Z,11.83
2018-09-05T11:40:27.343Z,11.78
2018-09-05T11:42:56.523Z,11.90
2018-09-05T11:45:25.267Z,11.53
2018-09-05T11:47:54.567Z,11.25
2018-09-05T11:50:23.924Z,13.13
2018-09-05T11:52:52.747Z,11.55
2018-09-05T11:55:22.410Z,11.88
2018-09-05T11:57:51.503Z,12.35
2018-09-05T12:00:20.414Z,11.45
2018-09-05T12:02:50.189Z,11.90
2018-09-05T12:05:19.355Z,11.65
2018-09-05T12:07:48.909Z,12.03
2018-09-05T12:10:18.765Z,11.33
2018-09-05T12:12:47.606Z,10.93
2018-09-05T12:15:16.787Z,11.63
2018-09-05T12:17:45.501Z,11.28
2018-09-05T12:20:14.696Z,11.20
2018-09-05T12:22:43.223Z,12.23
2018-09-05T12:25:12.205Z,11.03
2018-09-05T12:27:40.754Z,10.23
2018-09-05T12:30:09.541Z,11.28
2018-09-05T12:32:38.233Z,12.20
2018-09-05T12:35:07.159Z,13.38
2018-09-05T12:37:35.987Z,12.88
2018-09-05T12:40:05.310Z,16.82
2018-09-05T12:42:34.638Z,13.58
2018-09-05T12:45:03.348Z,16.25
2018-09-05T12:47:31.903Z,12.85
2018-09-05T12:50:00.755Z,10.43
2018-09-05T12:52:29.547Z,11.55
2018-09-05T12:54:58.801Z,13.60
2018-09-05T12:57:27.479Z,9.73
2018-09-05T12:59:57.283Z,9.38
2018-09-05T13:02:26.166Z,9.48
2018-09-05T13:04:55.282Z,9.20
2018-09-05T13:07:24.331Z,8.80
2018-09-05T13:09:53.602Z,8.98
2018-09-05T13:12:22.553Z,8.68
2018-09-05T13:14:51.400Z,7.85
2018-09-05T13:17:20.719Z,8.90
2018-09-05T13:19:50.030Z,8.70
2018-09-05T13:22:19.404Z,8.75
2018-09-05T13:24:48.685Z,9.18
2018-09-05T13:27:17.463Z,8.98
2018-09-05T13:29:46.172Z,10.08
2018-09-05T13:32:15.090Z,9.55
2018-09-05T13:34:43.973Z,9.90
2018-09-05T13:37:12.878Z,8.90
2018-09-05T13:39:42.194Z,8.75
2018-09-05T13:42:11.090Z,9.38
2018-09-05T13:44:39.865Z,8.65
2018-09-05T13:47:08.723Z,9.65
2018-09-05T13:49:37.491Z,8.80
2018-09-05T13:52:07.269Z,8.18
2018-09-05T13:54:38.747Z,8.43
2018-09-05T13:57:07.338Z,7.83
2018-09-05T13:59:36.062Z,16.80
2018-09-05T14:02:04.660Z,15.38
2018-09-05T14:04:42.591Z,8.50
2018-09-05T14:07:11.299Z,8.50
2018-09-05T14:09:40.474Z,7.47
2018-09-05T14:12:12.671Z,7.80
2018-09-05T14:14:41.393Z,7.92
2018-09-05T14:17:10.196Z,7.87
2018-09-05T14:19:39.377Z,8.10
2018-09-05T14:22:08.078Z,8.33
2018-09-05T14:24:36.842Z,11.22
2018-09-05T14:27:05.626Z,8.55
2018-09-05T14:29:34.480Z,20.00
2018-09-05T14:32:03.033Z,8.98
2018-09-05T14:34:31.771Z,9.58
2018-09-05T14:37:01.434Z,10.50
2018-09-05T14:39:30.067Z,14.53
2018-09-05T14:41:58.882Z,11.63
2018-09-05T14:44:27.440Z,9.08
2018-09-05T14:46:56.930Z,8.20
2018-09-05T14:49:25.871Z,8.48
2018-09-05T14:51:55.082Z,8.53
2018-09-05T14:54:24.247Z,8.73
2018-09-05T14:56:53.567Z,8.65
2018-09-05T14:59:22.562Z,11.45
2018-09-05T15:01:52.049Z,10.18
2018-09-05T15:04:22.115Z,9.90
2018-09-05T15:06:51.132Z,9.53
2018-09-05T15:09:20.136Z,10.20
2018-09-05T15:11:49.122Z,9.55
2018-09-05T15:14:18.422Z,9.05
2018-09-05T15:16:47.669Z,10.95
2018-09-05T15:19:16.437Z,11.50
2018-09-05T15:21:45.533Z,11.60
2018-09-05T15:24:15.190Z,13.40
2018-09-05T15:26:43.947Z,25.92
2018-09-05T15:29:12.746Z,13.20
2018-09-05T15:31:41.666Z,11.48
2018-09-05T15:34:10.504Z,13.03
2018-09-05T15:36:39.623Z,11.55
2018-09-05T15:39:09.696Z,13.55
2018-09-05T15:41:38.772Z,40.00
2018-09-05T15:44:07.367Z,21.07
2018-09-05T15:46:35.988Z,22.50
2018-09-05T15:49:04.733Z,14.73
2018-09-05T15:51:34.885Z,9.83
2018-09-05T15:54:03.580Z,10.40
2018-09-05T15:56:32.445Z,12.20
2018-09-05T15:59:01.161Z,9.98
2018-09-05T16:01:30.115Z,9.45
2018-09-05T16:03:58.997Z,10.20
2018-09-05T16:06:27.699Z,10.60
2018-09-05T16:08:56.698Z,11.28
2018-09-05T16:11:25.847Z,10.40
2018-09-05T16:13:54.811Z,11.22
2018-09-05T16:16:23.779Z,10.23
2018-09-05T16:18:53.101Z,20.55
2018-09-05T16:21:21.898Z,15.90
2018-09-05T16:23:50.931Z,11.40
2018-09-05T16:26:20.028Z,10.93
2018-09-05T16:28:49.355Z,17.52
2018-09-05T16:31:18.583Z,14.28
2018-09-05T16:33:47.607Z,11.25
2018-09-05T16:36:16.476Z,10.88
2018-09-05T16:38:47.782Z,10.65
2018-09-05T16:41:16.627Z,11.33
2018-09-05T16:43:46.536Z,20.52
2018-09-05T16:46:15.346Z,16.30
2018-09-05T16:48:44.745Z,15.88
2018-09-05T16:51:13.927Z,12.07
2018-09-05T16:53:42.611Z,29.37
2018-09-05T16:56:11.266Z,15.90
2018-09-05T16:58:40.950Z,17.50
2018-09-05T17:01:09.696Z,13.60
2018-09-05T17:03:38.498Z,12.58
2018-09-05T17:06:07.097Z,12.00
2018-09-05T17:08:35.881Z,29.72
2018-09-05T17:11:04.600Z,23.92
2018-09-05T17:13:33.315Z,14.68
2018-09-05T17:16:02.063Z,17.55
2018-09-05T17:18:30.935Z,13.30
2018-09-05T17:20:59.708Z,23.00
2018-09-05T17:23:28.587Z,23.60
2018-09-05T17:25:57.786Z,19.12
2018-09-05T17:28:26.541Z,39.15
2018-09-05T17:30:55.474Z,29.95
2018-09-05T17:33:24.346Z,34.55
2018-09-05T17:35:53.141Z,24.92
2018-09-05T17:38:22.234Z,24.18
2018-09-05T17:40:51.220Z,16.35
2018-09-05T17:43:20.312Z,12.60
2018-09-05T17:45:49.667Z,11.57
2018-09-05T17:48:19.064Z,12.68
2018-09-05T17:50:48.807Z,12.60
2018-09-05T17:53:17.941Z,13.32
2018-09-05T17:55:47.255Z,15.55
2018-09-05T17:58:16.410Z,15.53
2018-09-05T18:00:45.473Z,26.55
2018-09-05T18:03:14.094Z,17.52
2018-09-05T18:05:44.716Z,14.15
2018-09-05T18:08:13.541Z,12.93
2018-09-05T18:10:42.719Z,11.90
2018-09-05T18:13:11.295Z,16.62
2018-09-05T18:15:39.959Z,13.13
2018-09-05T18:18:09.040Z,27.93
2018-09-05T18:20:37.797Z,19.25
2018-09-05T18:23:06.491Z,15.23
2018-09-05T18:25:35.185Z,17.20
2018-09-05T18:28:03.958Z,14.68
2018-09-05T18:30:32.870Z,13.05
2018-09-05T18:33:02.632Z,19.65
2018-09-05T18:35:32.357Z,15.50
2018-09-05T18:38:01.095Z,14.13
2018-09-05T18:40:29.835Z,16.10
2018-09-05T18:42:58.848Z,22.07
2018-09-05T18:45:27.690Z,17.75
2018-09-05T18:47:56.811Z,17.75
2018-09-05T18:50:25.759Z,14.87
2018-09-05T18:52:59.878Z,22.50
2018-09-05T18:55:30.805Z,20.27
2018-09-05T18:58:00.721Z,14.98
2018-09-05T19:00:30.272Z,21.87
2018-09-05T19:02:59.304Z,16.42
2018-09-05T19:05:28.181Z,15.30
2018-09-05T19:07:57.503Z,12.13
2018-09-05T19:10:26.473Z,11.90
2018-09-05T19:12:56.367Z,12.20
2018-09-05T19:15:25.824Z,12.80
2018-09-05T19:17:55.777Z,11.33
2018-09-05T19:20:25.275Z,11.63
2018-09-05T19:22:54.616Z,11.33
2018-09-05T19:25:23.603Z,10.88
2018-09-05T19:27:52.489Z,11.38
2018-09-05T19:30:21.383Z,13.22
2018-09-05T19:32:50.263Z,11.70
2018-09-05T19:35:19.149Z,14.47
2018-09-05T19:37:48.403Z,12.93
2018-09-05T19:40:17.090Z,13.03
2018-09-05T19:42:46.551Z,11.68
2018-09-05T19:45:15.833Z,12.28
2018-09-05T19:47:45.429Z,11.45
2018-09-05T19:50:14.100Z,10.82
2018-09-05T19:52:42.681Z,11.57
2018-09-05T19:55:11.513Z,11.08
2018-09-05T19:57:40.056Z,10.75
2018-09-05T20:00:08.953Z,11.05
2018-09-05T20:02:37.730Z,10.70
2018-09-05T20:05:06.450Z,11.00
2018-09-05T20:07:34.994Z,10.20
2018-09-05T20:10:03.647Z,10.50
2018-09-05T20:12:32.581Z,10.50
2018-09-05T20:15:01.403Z,10.08
2018-09-05T20:17:30.607Z,11.30
2018-09-05T20:19:59.326Z,10.68
2018-09-05T20:22:28.884Z,11.33
2018-09-05T20:24:57.649Z,10.15
2018-09-05T20:27:26.686Z,11.30
2018-09-05T20:29:56.199Z,10.13
2018-09-05T20:32:24.992Z,11.05
2018-09-05T20:34:53.746Z,10.88
2018-09-05T20:37:22.458Z,11.55
2018-09-05T20:39:51.405Z,9.93
2018-09-05T20:42:20.533Z,10.03
2018-09-05T20:44:49.562Z,9.90
2018-09-05T20:47:18.495Z,9.43
2018-09-05T20:49:47.225Z,9.45
2018-09-05T20:52:16.480Z,9.63
2018-09-05T20:54:45.035Z,9.00
2018-09-05T20:57:13.740Z,9.23
2018-09-05T20:59:44.328Z,9.78
2018-09-05T21:02:13.066Z,9.50
2018-09-05T21:04:41.662Z,9.88
2018-09-05T21:07:18.422Z,9.13
2018-09-05T21:09:47.055Z,8.43
2018-09-05T21:12:15.826Z,8.23
2018-09-05T21:14:44.668Z,8.53
2018-09-05T21:17:13.508Z,8.65
2018-09-05T21:19:42.317Z,7.95
2018-09-05T21:22:11.089Z,8.08
2018-09-05T21:24:40.091Z,8.55
2018-09-05T21:27:08.820Z,7.70
2018-09-05T21:29:37.706Z,8.50
2018-09-05T21:32:07.438Z,8.00
2018-09-05T21:34:36.169Z,9.15
2018-09-05T21:37:04.958Z,8.48
2018-09-05T21:39:33.526Z,8.98
2018-09-05T21:42:02.183Z,8.13
2018-09-05T21:44:30.809Z,8.63
2018-09-05T21:46:59.677Z,8.90
2018-09-05T21:49:28.461Z,7.90
2018-09-05T21:51:57.245Z,8.53
2018-09-05T21:54:26.128Z,9.38
2018-09-05T21:56:54.872Z,8.68
2018-09-05T21:59:23.811Z,8.78
2018-09-05T22:01:52.684Z,9.55
2018-09-05T22:04:21.436Z,9.18
2018-09-05T22:06:50.149Z,9.20
2018-09-05T22:09:18.920Z,9.00
2018-09-05T22:11:48.659Z,8.73
2018-09-05T22:14:17.481Z,9.05
2018-09-05T22:16:46.120Z,9.35
2018-09-05T22:19:14.915Z,9.43
2018-09-05T22:21:43.469Z,9.70
2018-09-05T22:24:12.199Z,9.25
2018-09-05T22:26:41.529Z,9.63
2018-09-05T22:29:10.263Z,9.25
2018-09-05T22:31:39.112Z,9.13
2018-09-05T22:34:07.926Z,9.30
2018-09-05T22:36:36.715Z,8.98
2018-09-05T22:39:06.848Z,9.18
2018-09-05T22:41:35.788Z,9.23
2018-09-05T22:45:15.994Z,9.68
2018-09-05T22:48:03.926Z,9.58
2018-09-05T22:51:13.989Z,9.85
2018-09-05T22:56:11.021Z,9.53
2018-09-05T22:58:59.440Z,10.68
2018-09-05T23:02:15.801Z,10.43
2018-09-05T23:04:55.717Z,10.63
2018-09-05T23:07:37.866Z,10.55
2018-09-05T23:10:18.038Z,18.15
2018-09-05T23:12:58.780Z,12.20
2018-09-05T23:16:38.155Z,11.68
2018-09-05T23:19:47.845Z,14.47
2018-09-05T23:22:17.413Z,13.20
2018-09-05T23:24:46.036Z,11.90
2018-09-05T23:27:14.777Z,11.63
2018-09-05T23:29:43.620Z,11.30
2018-09-05T23:32:12.590Z,12.10
2018-09-05T23:34:41.155Z,13.25
2018-09-05T23:37:10.451Z,11.22
2018-09-05T23:39:39.382Z,11.97
2018-09-05T23:42:08.164Z,12.07
2018-09-05T23:44:37.343Z,11.97
2018-09-05T23:47:06.217Z,10.78
2018-09-05T23:49:34.954Z,10.63
2018-09-05T23:52:03.652Z,11.35
2018-09-05T23:54:33.115Z,10.70
2018-09-05T23:57:01.779Z,11.25
2018-09-05T23:59:30.432Z,11.68
